createdAt,value
2017-05-19T00:01:07.174Z,16.10
2017-05-19T00:03:40.640Z,16.24
2017-05-19T00:06:14.768Z,15.50
2017-05-19T00:08:49.594Z,18.88
2017-05-19T00:11:24.526Z,20.80
2017-05-19T00:14:01.852Z,21.04
2017-05-19T00:16:33.942Z,19.86
2017-05-19T00:19:07.084Z,21.74
2017-05-19T00:21:42.261Z,25.18
2017-05-19T00:24:18.473Z,25.54
2017-05-19T00:26:50.899Z,24.34
2017-05-19T00:29:24.194Z,22.08
2017-05-19T00:31:59.533Z,25.44
2017-05-19T00:34:31.708Z,28.34
2017-05-19T00:37:07.765Z,27.24
2017-05-19T00:39:43.929Z,30.38
2017-05-19T00:42:18.561Z,34.60
2017-05-19T00:44:52.967Z,33.16
2017-05-19T00:47:26.484Z,32.94
2017-05-19T00:49:58.817Z,30.42
2017-05-19T00:52:33.926Z,32.50
2017-05-19T00:55:10.347Z,32.86
2017-05-19T00:57:42.207Z,31.78
2017-05-19T01:00:14.095Z,32.10
2017-05-19T01:02:54.425Z,29.54
2017-05-19T01:05:27.007Z,30.84
2017-05-19T01:07:59.681Z,29.84
2017-05-19T01:10:36.165Z,29.24
2017-05-19T01:13:08.860Z,28.12
2017-05-19T01:15:44.456Z,30.00
2017-05-19T01:18:16.521Z,28.36
2017-05-19T01:20:55.510Z,29.00
2017-05-19T01:23:28.517Z,32.26
2017-05-19T01:26:04.154Z,30.00
2017-05-19T01:28:38.769Z,30.38
2017-05-19T01:31:13.209Z,30.82
2017-05-19T01:33:48.089Z,28.44
2017-05-19T01:36:19.246Z,28.98
2017-05-19T01:38:55.459Z,32.92
2017-05-19T01:41:26.770Z,29.58
2017-05-19T01:44:02.665Z,31.24
2017-05-19T01:46:35.989Z,31.82
2017-05-19T01:49:07.925Z,28.00
2017-05-19T01:51:40.316Z,29.22
2017-05-19T02:14:48.387Z,23.32
2017-05-19T02:17:23.095Z,23.80
2017-05-19T02:19:56.590Z,21.12
2017-05-19T02:22:29.608Z,19.62
2017-05-19T02:25:06.189Z,19.08
2017-05-19T02:27:42.027Z,18.38
2017-05-19T02:30:13.867Z,16.58
2017-05-19T02:32:47.035Z,15.04
2017-05-19T02:35:23.704Z,12.16
2017-05-19T02:37:56.099Z,11.04
2017-05-19T02:40:27.598Z,11.64
2017-05-19T02:42:58.195Z,10.80
2017-05-19T02:45:31.394Z,15.32
2017-05-19T02:48:02.293Z,13.28
2017-05-19T02:50:38.133Z,10.72
2017-05-19T02:53:11.326Z,13.00
2017-05-19T02:55:43.555Z,11.04
2017-05-19T02:58:17.464Z,14.86
2017-05-19T03:00:49.161Z,12.52
2017-05-19T03:03:24.291Z,12.52
2017-05-19T03:05:56.650Z,12.14
2017-05-19T03:08:29.439Z,10.36
2017-05-19T03:11:02.867Z,10.00
2017-05-19T03:13:39.240Z,8.22
2017-05-19T03:16:16.732Z,7.66
2017-05-19T03:18:48.781Z,7.38
2017-05-19T03:21:21.417Z,7.64
2017-05-19T03:23:55.773Z,6.48
2017-05-19T03:26:31.011Z,5.32
2017-05-19T03:29:07.196Z,5.64
2017-05-19T03:31:39.904Z,7.00
2017-05-19T03:34:09.523Z,6.18
2017-05-19T03:36:42.999Z,6.32
2017-05-19T03:39:18.879Z,7.52
2017-05-19T03:41:53.806Z,6.80
2017-05-19T03:44:30.238Z,6.76
2017-05-19T03:47:05.116Z,6.44
2017-05-19T03:49:39.712Z,6.56
2017-05-19T03:52:10.653Z,6.48
2017-05-19T03:54:45.111Z,6.50
2017-05-19T03:57:22.050Z,6.50
2017-05-19T03:59:56.464Z,9.02
2017-05-19T04:02:32.574Z,6.70
2017-05-19T04:05:05.065Z,7.30
2017-05-19T04:07:37.351Z,9.56
2017-05-19T04:10:10.784Z,7.48
2017-05-19T04:12:46.376Z,6.84
2017-05-19T04:15:20.763Z,7.30
2017-05-19T04:17:54.338Z,15.12
2017-05-19T04:20:27.329Z,7.60
2017-05-19T04:22:58.438Z,7.28
2017-05-19T04:25:31.617Z,8.36
2017-05-19T04:28:05.172Z,9.12
2017-05-19T04:30:45.740Z,9.34
2017-05-19T04:33:19.963Z,8.38
2017-05-19T04:35:50.875Z,9.38
2017-05-19T04:38:22.639Z,9.16
2017-05-19T04:40:57.340Z,9.06
2017-05-19T04:43:33.678Z,11.54
2017-05-19T04:46:06.975Z,6.96
2017-05-19T04:48:43.005Z,7.06
2017-05-19T04:51:18.670Z,8.98
2017-05-19T04:53:52.597Z,7.58
2017-05-19T04:56:26.932Z,10.70
2017-05-19T04:59:00.060Z,5.58
2017-05-19T05:01:40.254Z,7.24
2017-05-19T05:04:18.136Z,6.66
2017-05-19T05:06:51.425Z,6.18
2017-05-19T05:09:27.140Z,7.12
2017-05-19T05:12:01.371Z,6.22
2017-05-19T05:14:46.030Z,6.86
2017-05-19T05:17:23.457Z,9.94
2017-05-19T05:19:57.685Z,6.94
2017-05-19T05:22:37.617Z,5.08
2017-05-19T05:25:09.264Z,5.04
2017-05-19T05:27:41.245Z,4.16
2017-05-19T05:30:16.857Z,4.28
2017-05-19T05:32:53.940Z,6.22
2017-05-19T05:35:31.257Z,4.78
2017-05-19T05:38:07.911Z,4.72
2017-05-19T05:40:39.243Z,4.38
2017-05-19T05:43:08.321Z,6.20
2017-05-19T05:45:43.585Z,6.64
2017-05-19T05:48:16.205Z,5.14
2017-05-19T05:50:53.119Z,5.08
2017-05-19T05:53:26.027Z,7.02
2017-05-19T05:55:57.785Z,5.50
2017-05-19T05:58:31.850Z,4.76
2017-05-19T06:01:05.102Z,4.06
2017-05-19T06:03:40.652Z,5.10
2017-05-19T06:06:12.919Z,4.52
2017-05-19T06:08:45.586Z,5.22
2017-05-19T06:11:19.088Z,5.54
2017-05-19T06:13:51.380Z,4.80
2017-05-19T06:16:21.347Z,7.38
2017-05-19T06:18:54.077Z,4.60
2017-05-19T06:21:27.360Z,9.08
2017-05-19T06:24:00.516Z,5.54
2017-05-19T06:26:35.140Z,6.04
2017-05-19T06:29:08.927Z,8.98
2017-05-19T06:31:44.119Z,5.36
2017-05-19T06:34:15.465Z,7.44
2017-05-19T06:36:48.352Z,5.44
2017-05-19T06:39:27.048Z,5.25
2017-05-19T06:42:02.141Z,7.20
2017-05-19T06:44:36.725Z,4.38
2017-05-19T06:47:11.625Z,5.10
2017-05-19T06:49:53.902Z,7.04
2017-05-19T06:52:29.316Z,5.12
2017-05-19T06:55:03.726Z,4.36
2017-05-19T06:57:38.997Z,6.38
2017-05-19T07:00:10.911Z,4.16
2017-05-19T07:02:42.465Z,5.72
2017-05-19T07:05:18.295Z,4.74
2017-05-19T07:07:51.910Z,4.70
2017-05-19T07:10:29.211Z,4.68
2017-05-19T07:13:02.706Z,6.12
2017-05-19T07:15:38.817Z,4.88
2017-05-19T07:18:10.640Z,5.46
2017-05-19T07:20:43.386Z,4.88
2017-05-19T07:23:14.876Z,7.14
2017-05-19T07:25:48.974Z,7.10
2017-05-19T07:28:22.644Z,6.18
2017-05-19T07:30:58.300Z,6.34
2017-05-19T07:33:30.748Z,6.40
2017-05-19T07:36:02.366Z,6.58
2017-05-19T07:38:38.225Z,6.84
2017-05-19T07:41:12.096Z,7.90
2017-05-19T07:43:45.027Z,9.12
2017-05-19T07:46:16.596Z,7.74
2017-05-19T07:48:49.934Z,7.14
2017-05-19T07:51:22.320Z,7.18
2017-05-19T07:53:55.581Z,8.32
2017-05-19T07:56:30.004Z,7.68
2017-05-19T07:59:02.228Z,8.20
2017-05-19T08:01:35.855Z,8.46
2017-05-19T08:04:09.360Z,7.82
2017-05-19T08:06:42.553Z,9.36
2017-05-19T08:09:18.425Z,9.18
2017-05-19T08:11:54.202Z,9.52
2017-05-19T08:14:28.153Z,13.68
2017-05-19T08:17:01.362Z,10.90
2017-05-19T08:19:32.672Z,9.60
2017-05-19T08:22:06.727Z,11.84
2017-05-19T08:24:41.525Z,10.80
2017-05-19T08:27:15.160Z,14.64
2017-05-19T08:29:47.806Z,11.98
2017-05-19T08:32:20.555Z,10.98
2017-05-19T08:34:53.157Z,11.92
2017-05-19T08:37:25.875Z,12.44
2017-05-19T08:39:58.232Z,15.10
2017-05-19T08:42:30.694Z,12.94
2017-05-19T08:45:07.257Z,12.90
2017-05-19T08:47:39.782Z,13.50
2017-05-19T08:50:13.512Z,12.02
2017-05-19T08:52:46.692Z,12.78
2017-05-19T08:55:18.501Z,12.50
2017-05-19T08:57:53.030Z,10.92
2017-05-19T09:00:25.243Z,10.04
2017-05-19T09:02:58.385Z,8.80
2017-05-19T09:05:33.514Z,10.08
2017-05-19T09:08:06.278Z,9.12
2017-05-19T09:10:40.965Z,9.26
2017-05-19T09:13:14.032Z,8.20
2017-05-19T09:15:48.065Z,7.48
2017-05-19T09:18:19.688Z,7.32
2017-05-19T09:20:54.323Z,8.28
2017-05-19T09:23:28.567Z,8.26
2017-05-19T09:26:02.363Z,7.24
2017-05-19T09:28:34.278Z,8.40
2017-05-19T09:31:05.550Z,7.66
2017-05-19T09:33:39.903Z,7.60
2017-05-19T09:36:11.714Z,8.02
2017-05-19T09:38:44.434Z,7.60
2017-05-19T09:41:18.456Z,10.32
2017-05-19T09:43:51.893Z,8.88
2017-05-19T09:46:24.812Z,9.74
2017-05-19T09:48:58.482Z,9.24
2017-05-19T09:51:33.613Z,7.36
2017-05-19T09:54:08.155Z,10.00
2017-05-19T09:56:42.801Z,7.16
2017-05-19T09:59:18.177Z,8.46
2017-05-19T10:01:53.436Z,8.40
2017-05-19T10:04:29.103Z,9.48
2017-05-19T10:07:01.781Z,10.08
2017-05-19T10:09:35.117Z,7.86
2017-05-19T10:12:09.862Z,11.14
2017-05-19T10:14:43.617Z,9.30
2017-05-19T10:17:15.374Z,10.00
2017-05-19T10:19:48.792Z,9.48
2017-05-19T10:22:22.571Z,8.54
2017-05-19T10:24:54.878Z,10.06
2017-05-19T10:27:31.168Z,8.52
2017-05-19T10:30:09.903Z,8.44
2017-05-19T10:32:42.099Z,8.72
2017-05-19T10:35:18.168Z,8.40
2017-05-19T10:37:52.678Z,8.08
2017-05-19T10:40:26.054Z,8.74
2017-05-19T10:42:59.893Z,8.96
2017-05-19T10:45:36.481Z,8.26
2017-05-19T10:48:08.976Z,7.34
2017-05-19T10:50:41.797Z,7.70
2017-05-19T10:53:13.989Z,9.72
2017-05-19T10:55:47.456Z,8.28
2017-05-19T10:58:22.768Z,12.20
2017-05-19T11:00:56.136Z,7.84
2017-05-19T11:03:30.837Z,9.62
2017-05-19T11:06:03.797Z,9.74
2017-05-19T11:08:41.082Z,8.80
2017-05-19T11:11:15.706Z,7.96
2017-05-19T11:13:48.764Z,9.26
2017-05-19T11:16:20.184Z,9.64
2017-05-19T11:18:52.874Z,8.14
2017-05-19T11:21:25.303Z,8.58
2017-05-19T11:23:58.090Z,8.98
2017-05-19T11:26:30.805Z,9.02
2017-05-19T11:29:06.048Z,8.32
2017-05-19T11:31:37.730Z,9.20
2017-05-19T11:34:17.753Z,9.32
2017-05-19T11:36:51.223Z,9.22
2017-05-19T11:39:23.432Z,8.88
2017-05-19T11:41:58.396Z,7.38
2017-05-19T11:44:31.523Z,8.94
2017-05-19T11:47:04.614Z,9.06
2017-05-19T11:49:40.321Z,10.76
2017-05-19T11:52:12.435Z,8.84
2017-05-19T11:54:45.073Z,9.32
2017-05-19T11:57:16.586Z,9.08
2017-05-19T11:59:50.171Z,7.72
2017-05-19T12:02:24.104Z,11.46
2017-05-19T12:04:55.486Z,8.58
2017-05-19T12:07:30.291Z,8.92
2017-05-19T12:10:13.884Z,9.34
2017-05-19T12:12:48.684Z,9.58
2017-05-19T12:15:21.803Z,9.62
2017-05-19T12:17:53.136Z,9.34
2017-05-19T12:20:22.205Z,7.78
2017-05-19T12:22:59.797Z,6.94
2017-05-19T12:25:32.230Z,7.56
2017-05-19T12:28:05.625Z,5.80
2017-05-19T12:30:40.573Z,7.44
2017-05-19T12:33:17.000Z,6.44
2017-05-19T12:35:51.536Z,4.48
2017-05-19T12:38:23.707Z,8.24
2017-05-19T12:40:57.457Z,5.30
2017-05-19T12:43:30.176Z,4.44
2017-05-19T12:45:59.228Z,4.98
2017-05-19T12:48:30.458Z,4.58
2017-05-19T12:51:00.476Z,5.10
2017-05-19T12:53:35.609Z,5.36
2017-05-19T12:56:08.124Z,7.42
2017-05-19T12:58:44.693Z,6.14
2017-05-19T13:01:14.124Z,6.94
2017-05-19T13:03:48.059Z,8.44
2017-05-19T13:06:24.151Z,9.48
2017-05-19T13:08:57.764Z,10.64
2017-05-19T13:11:31.800Z,8.60
2017-05-19T13:14:03.608Z,9.18
2017-05-19T13:16:38.077Z,8.38
2017-05-19T13:19:13.672Z,9.08
2017-05-19T13:21:47.663Z,10.86
2017-05-19T13:24:22.026Z,9.40
2017-05-19T13:26:56.647Z,9.38
2017-05-19T13:29:31.584Z,9.00
2017-05-19T13:32:03.782Z,10.64
2017-05-19T13:34:38.592Z,11.44
2017-05-19T13:37:12.338Z,11.46
2017-05-19T13:39:44.695Z,13.28
2017-05-19T13:42:15.700Z,15.58
2017-05-19T13:44:52.219Z,15.96
2017-05-19T13:47:26.664Z,17.30
2017-05-19T13:50:04.725Z,16.98
2017-05-19T13:52:37.283Z,16.20
2017-05-19T13:55:10.084Z,17.90
2017-05-19T13:57:42.914Z,16.78
2017-05-19T14:00:16.450Z,15.02
2017-05-19T14:02:50.926Z,15.80
2017-05-19T14:05:23.826Z,18.66
2017-05-19T14:07:55.705Z,19.40
2017-05-19T14:10:30.224Z,21.50
2017-05-19T14:13:00.582Z,20.74
2017-05-19T14:15:36.235Z,21.30
2017-05-19T14:18:12.165Z,21.14
2017-05-19T14:20:46.189Z,16.48
2017-05-19T14:23:18.835Z,17.50
2017-05-19T14:25:50.884Z,17.58
2017-05-19T14:28:26.427Z,19.26
2017-05-19T14:31:01.558Z,20.80
2017-05-19T14:33:34.404Z,18.92
2017-05-19T14:36:07.709Z,19.04
2017-05-19T14:38:40.685Z,18.42
2017-05-19T14:41:16.863Z,18.54
2017-05-19T14:43:49.870Z,18.08
2017-05-19T14:46:20.501Z,18.08
2017-05-19T14:48:55.219Z,17.94
2017-05-19T14:51:25.397Z,19.12
2017-05-19T14:53:56.909Z,17.12
2017-05-19T14:56:30.175Z,20.06
2017-05-19T14:59:03.509Z,17.06
2017-05-19T15:01:35.258Z,15.52
2017-05-19T15:04:11.453Z,17.28
2017-05-19T15:06:46.385Z,16.56
2017-05-19T15:09:22.554Z,18.96
2017-05-19T15:11:55.780Z,15.50
2017-05-19T15:14:29.468Z,15.94
2017-05-19T15:17:03.213Z,17.00
2017-05-19T15:19:35.585Z,20.24
2017-05-19T15:22:04.889Z,19.26
2017-05-19T15:24:36.973Z,15.86
2017-05-19T15:27:10.812Z,15.22
2017-05-19T15:29:45.589Z,15.50
2017-05-19T15:32:18.274Z,14.80
2017-05-19T15:34:50.660Z,16.78
2017-05-19T15:37:23.943Z,18.44
2017-05-19T15:39:55.192Z,16.02
2017-05-19T15:42:26.192Z,16.58
2017-05-19T15:44:59.927Z,16.16
2017-05-19T15:47:29.008Z,17.76
2017-05-19T15:49:58.118Z,18.56
2017-05-19T15:52:31.602Z,15.64
2017-05-19T15:55:01.669Z,15.64
2017-05-19T15:57:30.733Z,17.94
2017-05-19T15:59:59.816Z,22.08
2017-05-19T16:02:30.125Z,17.54
2017-05-19T16:04:59.189Z,19.62
2017-05-19T16:07:33.925Z,18.30
2017-05-19T16:10:07.497Z,20.22
2017-05-19T16:12:40.362Z,18.94
2017-05-19T16:15:09.462Z,20.34
2017-05-19T16:17:38.526Z,17.56
2017-05-19T16:20:07.618Z,24.16
2017-05-19T16:22:36.695Z,21.38
2017-05-19T16:25:06.520Z,18.76
2017-05-19T16:27:36.375Z,18.46
2017-05-19T16:30:05.434Z,16.78
2017-05-19T16:32:34.490Z,18.30
2017-05-19T16:35:04.388Z,18.26
2017-05-19T16:37:36.278Z,17.40
2017-05-19T16:40:09.417Z,18.66
2017-05-19T16:42:40.948Z,21.24
2017-05-19T16:45:10.257Z,19.50
2017-05-19T16:47:39.318Z,20.58
2017-05-19T16:50:08.683Z,21.96
2017-05-19T16:52:37.768Z,19.60
2017-05-19T16:55:08.578Z,19.48
2017-05-19T16:57:39.488Z,26.82
2017-05-19T17:00:09.566Z,26.04
2017-05-19T17:02:40.261Z,21.06
2017-05-19T17:05:09.312Z,20.06
2017-05-19T17:07:38.390Z,23.66
2017-05-19T17:10:07.558Z,22.56
2017-05-19T17:12:36.618Z,22.28
2017-05-19T17:15:12.443Z,22.24
2017-05-19T17:17:41.569Z,25.02
2017-05-19T17:20:15.316Z,22.02
2017-05-19T17:22:45.352Z,22.82
2017-05-19T17:25:14.639Z,24.64
2017-05-19T17:27:43.728Z,20.70
2017-05-19T17:30:12.792Z,24.42
2017-05-19T17:32:41.851Z,24.74
2017-05-19T17:35:12.014Z,22.62
2017-05-19T17:37:41.069Z,27.40
2017-05-19T17:40:10.758Z,22.82
2017-05-19T17:42:41.042Z,19.66
2017-05-19T17:45:10.113Z,23.00
2017-05-19T17:47:39.928Z,23.60
2017-05-19T17:50:09.947Z,21.66
2017-05-19T17:52:39.791Z,20.54
2017-05-19T17:55:09.270Z,21.84
2017-05-19T17:57:39.081Z,26.32
2017-05-19T18:00:09.972Z,22.16
2017-05-19T18:02:41.098Z,21.88
2017-05-19T18:05:11.709Z,23.40
2017-05-19T18:07:49.388Z,23.36
2017-05-19T18:10:26.109Z,24.94
2017-05-19T18:12:55.733Z,22.52
2017-05-19T18:15:30.039Z,24.20
2017-05-19T18:18:04.620Z,22.78
2017-05-19T18:20:41.753Z,20.50
2017-05-19T18:23:16.245Z,21.20
2017-05-19T18:25:48.290Z,25.28
2017-05-19T18:28:22.050Z,23.88
2017-05-19T18:30:58.706Z,21.62
2017-05-19T18:33:33.248Z,23.38
2017-05-19T18:36:06.917Z,25.76
2017-05-19T18:38:42.694Z,23.84
2017-05-19T18:41:15.051Z,21.08
2017-05-19T18:43:49.056Z,21.48
2017-05-19T18:46:22.001Z,24.30
2017-05-19T18:48:52.189Z,27.32
2017-05-19T18:51:25.405Z,35.42
2017-05-19T18:53:59.981Z,27.78
2017-05-19T18:56:32.106Z,22.74
2017-05-19T18:59:05.029Z,23.48
2017-05-19T19:01:35.731Z,23.00
2017-05-19T19:04:07.047Z,21.80
2017-05-19T19:06:39.520Z,22.20
2017-05-19T19:09:15.096Z,20.56
2017-05-19T19:11:51.560Z,22.54
2017-05-19T19:14:24.987Z,21.80
2017-05-19T19:17:00.728Z,18.48
2017-05-19T19:19:29.808Z,19.58
2017-05-19T19:22:05.868Z,19.24
2017-05-19T19:24:38.161Z,21.16
2017-05-19T19:27:12.440Z,19.78
2017-05-19T19:29:44.847Z,26.76
2017-05-19T19:32:21.013Z,23.72
2017-05-19T19:34:50.107Z,22.12
2017-05-19T19:37:19.195Z,20.22
2017-05-19T19:39:52.306Z,19.02
2017-05-19T19:42:23.168Z,23.10
2017-05-19T19:44:56.539Z,20.04
2017-05-19T19:47:28.660Z,22.40
2017-05-19T19:49:59.883Z,20.54
2017-05-19T19:52:33.554Z,21.38
2017-05-19T19:55:08.614Z,17.40
2017-05-19T19:57:40.253Z,19.94
2017-05-19T20:00:14.295Z,18.96
2017-05-19T20:02:46.467Z,21.08
2017-05-19T20:05:17.924Z,18.24
2017-05-19T20:07:51.195Z,19.60
2017-05-19T20:10:26.307Z,18.50
2017-05-19T20:12:58.424Z,19.32
2017-05-19T20:15:33.581Z,16.12
2017-05-19T20:18:06.306Z,19.08
2017-05-19T20:20:37.951Z,20.72
2017-05-19T20:23:13.486Z,25.06
2017-05-19T20:25:45.331Z,28.08
2017-05-19T20:28:19.880Z,23.98
2017-05-19T20:30:53.295Z,20.76
2017-05-19T20:33:25.669Z,22.42
2017-05-19T20:35:59.775Z,23.36
2017-05-19T20:38:32.108Z,24.46
2017-05-19T20:41:04.846Z,22.00
2017-05-19T20:43:37.103Z,21.68
2017-05-19T20:46:11.677Z,24.00
2017-05-19T20:48:44.330Z,21.76
2017-05-19T20:51:17.975Z,21.66
2017-05-19T20:53:51.778Z,22.06
2017-05-19T20:56:24.463Z,24.26
2017-05-19T20:59:00.272Z,25.08
2017-05-19T21:01:34.406Z,25.82
2017-05-19T21:04:06.733Z,25.64
2017-05-19T21:06:38.517Z,22.64
2017-05-19T21:09:11.376Z,25.98
2017-05-19T21:11:43.971Z,22.96
2017-05-19T21:14:17.617Z,28.26
2017-05-19T21:16:51.548Z,25.20
2017-05-19T21:19:25.798Z,25.08
2017-05-19T21:21:59.392Z,28.00
2017-05-19T21:24:33.114Z,27.96
2017-05-19T21:27:06.106Z,27.14
2017-05-19T21:29:39.194Z,24.34
2017-05-19T21:32:12.938Z,28.30
2017-05-19T21:34:49.352Z,28.04
2017-05-19T21:37:24.560Z,29.14
2017-05-19T21:39:59.800Z,25.70
2017-05-19T21:42:32.764Z,29.14
2017-05-19T21:45:08.046Z,28.34
2017-05-19T21:47:40.609Z,27.94
2017-05-19T21:50:15.534Z,31.10
2017-05-19T21:52:49.333Z,32.06
2017-05-19T21:55:24.088Z,33.72
2017-05-19T21:57:55.855Z,33.24
2017-05-19T22:00:28.634Z,32.74
2017-05-19T22:03:02.228Z,33.24
2017-05-19T22:05:38.476Z,28.40
2017-05-19T22:08:11.495Z,31.88
2017-05-19T22:10:46.999Z,33.00
2017-05-19T22:13:22.005Z,31.14
2017-05-19T22:15:58.325Z,32.58
2017-05-19T22:18:32.957Z,31.86
2017-05-19T22:21:04.836Z,31.64
2017-05-19T22:23:37.500Z,32.96
2017-05-19T22:26:14.482Z,29.32
2017-05-19T22:28:48.742Z,30.72
2017-05-19T22:31:22.153Z,30.62
2017-05-19T22:33:53.215Z,35.34
2017-05-19T22:36:26.104Z,30.80
2017-05-19T22:39:01.519Z,29.74
2017-05-19T22:41:33.220Z,33.74
2017-05-19T22:44:10.535Z,26.48
2017-05-19T22:46:41.643Z,27.70
2017-05-19T22:49:13.920Z,30.46
2017-05-19T22:51:48.321Z,29.36
2017-05-19T22:54:20.603Z,31.34
2017-05-19T22:56:57.293Z,31.28
2017-05-19T22:59:31.059Z,29.62
2017-05-19T23:02:07.137Z,27.08
2017-05-19T23:04:43.282Z,26.58
2017-05-19T23:07:15.908Z,26.80
2017-05-19T23:09:51.962Z,24.94
2017-05-19T23:12:24.447Z,28.86
2017-05-19T23:14:58.922Z,31.30
2017-05-19T23:17:33.584Z,26.58
2017-05-19T23:20:06.654Z,25.62
2017-05-19T23:22:41.877Z,24.24
2017-05-19T23:25:15.663Z,31.14
2017-05-19T23:27:48.578Z,26.10
2017-05-19T23:30:25.066Z,24.96
2017-05-19T23:32:58.495Z,26.08
2017-05-19T23:35:32.888Z,23.92
2017-05-19T23:38:06.175Z,20.82
2017-05-19T23:40:39.752Z,23.38
2017-05-19T23:43:14.046Z,25.60
2017-05-19T23:45:46.906Z,23.68
2017-05-19T23:48:18.420Z,28.20
2017-05-19T23:50:49.184Z,24.02
2017-05-19T23:53:22.065Z,27.12
2017-05-19T23:55:54.828Z,26.06
2017-05-19T23:58:28.628Z,23.10
